Time;durP1;ratioP1;P1;durP2;ratioP2;P2;SDS_P1;SDS_P2;PMS_P1;PMS_P2;Temp;Humidity;BMP_temperature;BMP_pressure;BME280_temperature;BME280_humidity;BME280_pressure;Samples;Min_cycle;Max_cycle;Signal;HPM_P1;HPM_P2
2023/09/27 00:00:32;;;;;;;12.73;6.32;;;;;;;16.24;83.34;101879.06;5111876;28;20024;-60
2023/09/27 00:02:58;;;;;;;8.80;5.60;;;;;;;16.25;83.05;101885.28;5112642;28;20023;-61
2023/09/27 00:05:24;;;;;;;9.18;6.05;;;;;;;16.13;83.45;101891.44;5112939;28;20024;-61
2023/09/27 00:07:51;;;;;;;8.20;5.93;;;;;;;16.07;84.34;101888.78;5112837;28;20115;-61
2023/09/27 00:10:17;;;;;;;8.45;6.10;;;;;;;16.03;84.41;101895.84;5112713;28;20482;-61
2023/09/27 00:12:42;;;;;;;9.45;6.32;;;;;;;16.02;85.26;101902.06;5112777;28;20023;-61
2023/09/27 00:15:10;;;;;;;7.35;6.05;;;;;;;16.07;84.53;101906.53;5111438;28;20027;-60
2023/09/27 00:17:35;;;;;;;9.10;5.47;;;;;;;16.12;83.93;101899.47;5114377;28;20059;-61
2023/09/27 00:20:00;;;;;;;11.00;6.25;;;;;;;16.11;84.17;101908.34;5116375;28;20429;-61
2023/09/27 00:22:27;;;;;;;8.80;6.10;;;;;;;16.14;83.94;101901.22;5116286;28;20035;-61
2023/09/27 00:24:52;;;;;;;10.52;6.18;;;;;;;16.18;84.37;101897.69;5114900;28;20024;-61
2023/09/27 00:27:18;;;;;;;10.35;5.63;;;;;;;16.14;83.47;101903.88;5116242;28;20043;-61
2023/09/27 00:29:45;;;;;;;8.55;5.68;;;;;;;16.13;83.31;101896.78;5116215;28;20465;-61
2023/09/27 00:32:10;;;;;;;7.20;5.57;;;;;;;16.10;83.31;101893.22;5116000;28;20048;-60
2023/09/27 00:34:36;;;;;;;8.73;5.82;;;;;;;16.10;83.60;101885.22;5116345;28;20111;-61
2023/09/27 00:37:02;;;;;;;8.23;5.63;;;;;;;16.12;84.33;101887.00;5116117;28;20101;-61
2023/09/27 00:39:27;;;;;;;8.93;5.25;;;;;;;16.10;84.38;101891.47;5114959;28;20134;-61
2023/09/27 00:41:53;;;;;;;10.88;5.90;;;;;;;16.06;84.21;101894.06;5115857;28;20457;-60
2023/09/27 00:44:18;;;;;;;6.85;5.22;;;;;;;16.05;83.39;101897.63;5114598;28;20026;-60
2023/09/27 00:46:44;;;;;;;7.55;5.50;;;;;;;15.98;83.09;101896.72;5116061;28;20110;-61
2023/09/27 00:49:11;;;;;;;8.10;5.43;;;;;;;16.00;83.17;101897.59;5116141;28;20122;-62
2023/09/27 00:51:37;;;;;;;8.05;5.88;;;;;;;15.92;84.03;101892.22;5115840;27;20075;-60
2023/09/27 00:54:04;;;;;;;7.60;5.60;;;;;;;15.85;84.76;101897.53;5115932;28;20031;-60
2023/09/27 00:56:30;;;;;;;7.90;5.60;;;;;;;15.86;84.49;101897.53;5115670;28;20035;-60
2023/09/27 00:58:56;;;;;;;9.07;5.72;;;;;;;15.92;84.56;101883.34;5115453;27;20023;-61
2023/09/27 01:01:25;;;;;;;7.93;5.85;;;;;;;15.87;83.58;101882.44;5115568;28;20481;-60
2023/09/27 01:03:51;;;;;;;7.90;5.50;;;;;;;15.77;84.39;101890.38;5115346;28;20034;-61
2023/09/27 01:06:18;;;;;;;8.68;5.55;;;;;;;15.69;84.61;101894.78;5115779;28;20027;-61
2023/09/27 01:08:43;;;;;;;8.77;5.38;;;;;;;15.62;84.70;101887.56;5115533;28;20024;-60
2023/09/27 01:11:09;;;;;;;8.15;5.43;;;;;;;15.61;84.26;101885.78;5114136;28;20548;-60
2023/09/27 01:13:34;;;;;;;11.95;5.78;;;;;;;15.58;84.74;101884.88;5115466;28;20023;-61
2023/09/27 01:16:00;;;;;;;9.35;5.95;;;;;;;15.60;85.06;101885.81;5115224;28;20028;-60
2023/09/27 01:18:28;;;;;;;8.45;5.88;;;;;;;15.44;85.91;101875.03;5115235;28;20157;-61
2023/09/27 01:20:54;;;;;;;10.57;5.63;;;;;;;15.44;85.53;101891.00;5115167;28;20027;-60
2023/09/27 01:23:19;;;;;;;8.68;5.40;;;;;;;15.41;85.60;101885.66;5115160;28;20026;-61
2023/09/27 01:25:48;;;;;;;7.20;5.30;;;;;;;15.38;84.82;101880.31;5115188;28;20024;-61
2023/09/27 01:28:13;;;;;;;9.10;5.25;;;;;;;15.41;84.61;101879.44;5114351;28;20023;-61
2023/09/27 01:30:39;;;;;;;7.50;5.25;;;;;;;15.37;84.70;101865.19;5114918;28;20392;-61
2023/09/27 01:33:06;;;;;;;9.77;5.40;;;;;;;15.30;84.58;101859.84;5114655;28;20495;-61
2023/09/27 01:35:33;;;;;;;8.98;6.72;;;;;;;15.31;86.48;101846.53;5114956;28;20024;-60
2023/09/27 01:37:58;;;;;;;11.55;7.30;;;;;;;15.41;87.77;101850.13;5114784;28;20016;-61
2023/09/27 01:40:30;;;;;;;9.63;6.95;;;;;;;15.47;86.53;101844.88;5114678;28;20030;-58
2023/09/27 01:42:56;;;;;;;8.35;5.57;;;;;;;15.39;85.37;101835.94;5114828;28;20568;-61
2023/09/27 01:45:21;;;;;;;8.35;6.15;;;;;;;15.31;85.36;101838.53;5114702;28;20051;-62
2023/09/27 01:47:47;;;;;;;12.57;6.65;;;;;;;15.27;86.06;101845.59;5114732;28;20050;-60
2023/09/27 01:50:12;;;;;;;9.38;6.72;;;;;;;15.19;86.31;101849.09;5114736;28;20027;-60
2023/09/27 01:52:38;;;;;;;10.50;6.55;;;;;;;15.16;86.46;101849.06;5114560;28;20023;-61
2023/09/27 01:55:04;;;;;;;12.43;7.18;;;;;;;15.20;88.42;101861.50;5114538;28;20023;-61
2023/09/27 01:57:29;;;;;;;11.45;6.40;;;;;;;15.18;87.39;101863.28;5114760;28;20024;-60
2023/09/27 01:59:54;;;;;;;9.50;6.47;;;;;;;15.19;87.03;101860.63;5114309;28;20489;-61
2023/09/27 02:02:20;;;;;;;11.90;6.28;;;;;;;15.12;86.94;101872.13;5114453;28;20118;-61
2023/09/27 02:04:45;;;;;;;8.57;6.00;;;;;;;15.13;86.52;101865.91;5114301;28;20384;-59
2023/09/27 02:07:11;;;;;;;8.65;5.80;;;;;;;15.16;86.27;101857.97;5114307;28;20023;-59
2023/09/27 02:09:36;;;;;;;11.70;5.85;;;;;;;15.11;86.22;101857.00;5114372;28;20035;-61
2023/09/27 02:12:01;;;;;;;8.45;6.50;;;;;;;15.10;86.70;101857.00;5114476;28;20027;-60
2023/09/27 02:14:27;;;;;;;10.82;6.38;;;;;;;15.08;87.23;101856.13;5114104;28;20498;-61
2023/09/27 02:16:52;;;;;;;10.23;6.63;;;;;;;15.06;87.93;101856.09;5114106;28;20030;-60
2023/09/27 02:19:17;;;;;;;10.88;6.32;;;;;;;15.03;88.06;101859.63;5113898;28;20027;-61
2023/09/27 02:21:43;;;;;;;7.25;5.78;;;;;;;15.02;87.23;101846.28;5114072;28;20350;-61
2023/09/27 02:24:11;;;;;;;9.23;5.80;;;;;;;15.02;86.86;101857.81;5113887;28;20035;-60
2023/09/27 02:26:37;;;;;;;11.18;6.10;;;;;;;14.97;87.46;101856.91;5113977;28;20032;-59
2023/09/27 02:29:02;;;;;;;8.82;5.93;;;;;;;14.92;86.94;101865.72;5112755;28;20030;-61
2023/09/27 02:31:28;;;;;;;9.88;5.97;;;;;;;14.93;86.74;101859.50;5113743;28;20070;-61
2023/09/27 02:33:53;;;;;;;9.27;5.88;;;;;;;14.94;86.99;101863.94;5112413;28;20065;-61
2023/09/27 02:36:19;;;;;;;10.00;6.50;;;;;;;14.95;87.75;101860.44;5113887;28;20066;-60
2023/09/27 02:38:44;;;;;;;8.82;6.32;;;;;;;14.96;88.25;101860.44;5113707;28;20019;-61
2023/09/27 02:41:10;;;;;;;9.10;6.40;;;;;;;14.89;86.58;101847.06;5113430;28;20395;-61
2023/09/27 02:43:35;;;;;;;7.63;5.70;;;;;;;14.93;85.80;101862.19;5113498;28;20023;-61
2023/09/27 02:46:00;;;;;;;7.90;5.93;;;;;;;14.83;86.79;101866.53;5113623;28;20019;-61
2023/09/27 02:48:26;;;;;;;7.28;5.72;;;;;;;14.81;87.25;101856.75;5113872;28;20114;-61
2023/09/27 02:50:55;;;;;;;8.50;5.60;;;;;;;14.81;86.35;101862.06;5112304;28;20076;-58
2023/09/27 02:53:21;;;;;;;9.48;5.93;;;;;;;14.83;87.00;101860.31;5112275;28;20023;-60
2023/09/27 02:55:47;;;;;;;8.10;6.30;;;;;;;14.82;87.96;101863.84;5113531;28;20050;-61
2023/09/27 02:58:12;;;;;;;10.25;6.20;;;;;;;14.81;86.92;101862.06;5113578;28;20063;-61
2023/09/27 03:00:37;;;;;;;8.65;5.40;;;;;;;14.80;86.24;101858.50;5113237;28;20020;-61
2023/09/27 03:03:03;;;;;;;11.13;5.38;;;;;;;14.77;85.74;101862.06;5113351;28;20020;-61
2023/09/27 03:05:30;;;;;;;10.00;5.47;;;;;;;14.74;85.70;101851.38;5113415;28;20050;-60
2023/09/27 03:07:57;;;;;;;11.13;6.07;;;;;;;14.72;86.96;101858.44;5113634;28;20015;-61
2023/09/27 03:10:22;;;;;;;9.85;5.80;;;;;;;14.71;86.73;101861.97;5113625;28;20027;-60
2023/09/27 03:12:51;;;;;;;9.60;5.75;;;;;;;14.74;86.68;101866.44;5113400;28;20545;-61
2023/09/27 03:15:17;;;;;;;8.90;5.40;;;;;;;14.73;85.57;101856.66;5113285;28;20425;-61
2023/09/27 03:17:43;;;;;;;9.10;5.63;;;;;;;14.75;86.05;101865.56;5113375;28;20034;-61
2023/09/27 03:20:15;;;;;;;8.23;5.72;;;;;;;14.71;85.98;101861.09;5113155;28;20028;-60
2023/09/27 03:22:44;;;;;;;8.52;5.53;;;;;;;14.65;86.21;101861.94;5113344;28;20464;-60
2023/09/27 03:25:09;;;;;;;10.07;6.15;;;;;;;14.60;87.28;101868.94;5113034;28;20487;-61
2023/09/27 03:27:36;;;;;;;7.65;5.53;;;;;;;14.59;86.90;101869.81;5113197;28;20032;-60
2023/09/27 03:30:03;;;;;;;7.10;5.32;;;;;;;14.63;86.27;101865.44;5113593;28;20418;-61
2023/09/27 03:32:29;;;;;;;8.13;4.93;;;;;;;14.64;86.21;101878.75;5112724;28;20400;-61
2023/09/27 03:34:54;;;;;;;10.30;5.85;;;;;;;14.63;86.56;101879.63;5113500;28;20026;-60
2023/09/27 03:37:20;;;;;;;7.65;5.68;;;;;;;14.65;87.13;101874.34;5113204;28;20469;-59
2023/09/27 03:39:45;;;;;;;8.40;5.63;;;;;;;14.56;86.79;101884.84;5111885;28;20024;-60
2023/09/27 03:42:11;;;;;;;6.45;5.40;;;;;;;14.53;87.03;101875.97;5113299;28;20032;-59
2023/09/27 03:44:36;;;;;;;6.82;5.47;;;;;;;14.48;87.15;101888.34;5112959;28;20069;-60
2023/09/27 03:47:02;;;;;;;9.35;5.63;;;;;;;14.49;87.92;101889.22;5112968;28;20050;-60
2023/09/27 03:49:27;;;;;;;9.02;5.60;;;;;;;14.41;87.78;101894.41;5112981;28;20115;-60
2023/09/27 03:51:53;;;;;;;8.85;5.50;;;;;;;14.42;87.90;101882.91;5112300;28;20028;-60
2023/09/27 03:54:18;;;;;;;7.47;5.30;;;;;;;14.43;87.69;101875.81;5117002;28;20092;-61
2023/09/27 03:56:43;;;;;;;8.95;5.60;;;;;;;14.47;87.77;101865.25;5116924;28;20106;-60
2023/09/27 03:59:09;;;;;;;7.57;5.13;;;;;;;14.49;87.34;101867.94;5115609;28;20549;-61
2023/09/27 04:01:34;;;;;;;6.85;4.93;;;;;;;14.47;86.41;101870.56;5116771;28;20032;-59
2023/09/27 04:04:00;;;;;;;7.72;5.18;;;;;;;14.44;86.87;101872.31;5116648;28;20516;-61
2023/09/27 04:06:25;;;;;;;7.95;5.30;;;;;;;14.39;88.23;101887.28;5116971;28;20019;-60
2023/09/27 04:08:51;;;;;;;6.57;4.97;;;;;;;14.42;87.46;101889.97;5116735;28;20495;-60
2023/09/27 04:11:16;;;;;;;6.38;4.90;;;;;;;14.40;86.51;101891.75;5116654;28;20465;-59
2023/09/27 04:13:43;;;;;;;7.38;5.00;;;;;;;14.35;87.00;101905.00;5116628;28;20173;-60
2023/09/27 04:16:08;;;;;;;7.85;4.68;;;;;;;14.29;86.81;101910.22;5116478;28;20031;-59
2023/09/27 04:18:33;;;;;;;6.97;5.10;;;;;;;14.21;86.86;101914.53;5116112;28;20469;-61
2023/09/27 04:21:08;;;;;;;6.88;5.05;;;;;;;14.17;87.55;101907.41;5116161;28;20103;-61
2023/09/27 04:23:36;;;;;;;6.68;4.93;;;;;;;14.22;87.32;101892.44;5116447;28;20028;-59
2023/09/27 04:26:05;;;;;;;6.18;5.40;;;;;;;14.27;87.42;101891.59;5116489;28;20035;-62
2023/09/27 04:28:30;;;;;;;7.22;5.45;;;;;;;14.35;87.88;101890.81;5116288;28;20556;-60
2023/09/27 04:30:56;;;;;;;9.88;6.25;;;;;;;14.38;88.78;101905.00;5116026;28;20112;-59
2023/09/27 04:33:21;;;;;;;9.52;5.78;;;;;;;14.31;87.63;101911.16;5115972;28;20075;-59
2023/09/27 04:35:47;;;;;;;8.77;6.18;;;;;;;14.24;87.97;101920.78;5116401;28;20484;-61
2023/09/27 04:38:14;;;;;;;6.53;5.40;;;;;;;14.11;87.42;101921.50;5116050;28;20094;-59
2023/09/27 04:40:39;;;;;;;7.90;5.40;;;;;;;14.02;88.07;101916.97;5115897;28;20027;-61
2023/09/27 04:43:05;;;;;;;8.23;5.72;;;;;;;13.99;88.96;101911.59;5115956;28;20032;-60
2023/09/27 04:45:30;;;;;;;8.55;5.10;;;;;;;13.91;88.29;101926.53;5115796;28;20024;-61
2023/09/27 04:47:55;;;;;;;7.85;5.72;;;;;;;13.90;89.41;101922.09;5115934;28;20054;-62
2023/09/27 04:50:21;;;;;;;6.07;4.97;;;;;;;13.94;88.43;101915.06;5116069;28;20369;-61
2023/09/27 04:52:46;;;;;;;8.50;6.25;;;;;;;14.04;90.04;101901.03;5116078;28;20077;-60
2023/09/27 04:55:12;;;;;;;8.05;6.28;;;;;;;14.09;91.15;101877.16;5115540;28;20028;-60
2023/09/27 04:57:38;;;;;;;8.50;6.85;;;;;;;14.08;91.71;101870.06;5115658;28;20437;-60
2023/09/27 05:00:06;;;;;;;8.73;6.20;;;;;;;14.07;90.69;101881.59;5115667;28;20047;-60
2023/09/27 05:02:31;;;;;;;8.80;6.15;;;;;;;14.00;89.87;101907.16;5115321;28;20048;-60
2023/09/27 05:04:57;;;;;;;12.15;6.45;;;;;;;13.91;90.04;101897.31;5115530;28;20053;-61
2023/09/27 05:07:22;;;;;;;9.20;5.40;;;;;;;13.96;89.29;101900.03;5115584;28;20028;-59
2023/09/27 05:09:48;;;;;;;10.32;5.88;;;;;;;13.87;89.54;101890.16;5115453;28;20041;-60
2023/09/27 05:12:14;;;;;;;7.60;5.85;;;;;;;13.95;89.80;101900.91;5115383;28;20110;-60
2023/09/27 05:14:41;;;;;;;9.10;6.20;;;;;;;13.94;89.95;101904.44;5115453;28;20507;-60
2023/09/27 05:17:06;;;;;;;7.82;5.72;;;;;;;13.89;88.81;101906.16;5115644;28;20110;-61
2023/09/27 05:19:32;;;;;;;6.90;4.65;;;;;;;13.93;88.74;101895.59;5115180;28;20453;-61
2023/09/27 05:21:59;;;;;;;8.25;6.18;;;;;;;13.99;90.81;101879.72;5115664;28;20106;-61
2023/09/27 05:24:24;;;;;;;7.78;5.72;;;;;;;14.05;90.05;101884.22;5115183;28;20032;-60
2023/09/27 05:26:49;;;;;;;8.02;5.85;;;;;;;14.08;90.20;101896.66;5114679;28;20116;-61
2023/09/27 05:29:15;;;;;;;8.43;5.95;;;;;;;14.09;89.10;101880.75;5114842;28;20039;-60
2023/09/27 05:31:41;;;;;;;8.98;5.57;;;;;;;14.07;88.68;101887.78;5114355;28;20398;-60
2023/09/27 05:34:07;;;;;;;14.73;6.70;;;;;;;14.08;89.22;101878.03;5114537;28;20032;-61
2023/09/27 05:36:33;;;;;;;11.57;5.57;;;;;;;13.98;88.71;101883.25;5114865;28;20024;-60
2023/09/27 05:39:00;;;;;;;12.27;5.60;;;;;;;13.91;88.33;101885.78;5113508;28;20028;-60
2023/09/27 05:41:26;;;;;;;8.45;6.10;;;;;;;13.86;88.75;101887.50;5114544;28;20019;-61
2023/09/27 05:43:51;;;;;;;19.80;6.20;;;;;;;13.81;89.84;101881.22;5114446;28;20028;-61
2023/09/27 05:46:16;;;;;;;11.48;6.35;;;;;;;13.81;90.01;101895.41;5110485;28;20058;-61
2023/09/27 05:48:42;;;;;;;19.35;5.95;;;;;;;13.83;89.84;101879.47;5093961;28;20020;-61
2023/09/27 05:51:07;;;;;;;9.88;5.47;;;;;;;13.88;89.51;101877.81;5094143;28;20035;-60
2023/09/27 05:53:33;;;;;;;9.50;6.25;;;;;;;13.93;90.41;101878.75;5093771;28;20394;-60
2023/09/27 05:56:03;;;;;;;9.65;5.88;;;;;;;14.00;90.08;101869.97;5093968;28;20024;-61
2023/09/27 05:58:29;;;;;;;12.27;6.45;;;;;;;14.10;89.29;101873.66;5094109;28;20036;-60
2023/09/27 06:00:55;;;;;;;11.23;5.90;;;;;;;14.26;89.41;101872.94;5093655;28;20032;-60
2023/09/27 06:03:20;;;;;;;10.60;6.38;;;;;;;14.35;88.60;101874.84;5093767;28;20017;-61
2023/09/27 06:05:46;;;;;;;11.75;6.68;;;;;;;14.47;89.92;101867.00;5093578;28;20491;-59
2023/09/27 06:08:11;;;;;;;15.57;7.05;;;;;;;14.37;88.45;101871.31;5093606;28;20031;-60
2023/09/27 06:10:37;;;;;;;12.00;6.07;;;;;;;14.26;88.43;101873.88;5092156;28;20483;-60
2023/09/27 06:13:02;;;;;;;12.45;6.55;;;;;;;14.17;89.13;101871.06;5093282;28;20028;-61
2023/09/27 06:15:32;;;;;;;18.38;8.52;;;;;;;14.19;89.22;101873.78;5092836;28;20028;-60
2023/09/27 06:17:58;;;;;;;12.13;6.10;;;;;;;14.23;89.15;101863.19;5093439;28;20031;-61
2023/09/27 06:20:29;;;;;;;10.43;6.05;;;;;;;14.23;89.29;101870.28;5093260;28;20389;-60
2023/09/27 06:22:57;;;;;;;11.35;6.55;;;;;;;14.23;89.51;101879.13;5093377;28;20443;-60
2023/09/27 06:25:24;;;;;;;12.00;6.63;;;;;;;14.25;90.24;101879.16;5093543;28;20032;-60
2023/09/27 06:27:51;;;;;;;10.00;6.50;;;;;;;14.41;91.18;101870.47;5093258;28;20454;-60
2023/09/27 06:30:17;;;;;;;10.30;6.80;;;;;;;14.57;90.57;101871.59;5093229;28;20040;-61
2023/09/27 06:32:42;;;;;;;12.30;5.70;;;;;;;14.72;89.87;101865.53;5091563;28;20063;-60
2023/09/27 06:35:12;;;;;;;13.25;6.95;;;;;;;14.87;90.61;101865.69;5091723;28;20016;-61
2023/09/27 06:37:43;;;;;;;10.60;6.53;;;;;;;15.08;90.42;101858.78;5093468;28;20047;-60
2023/09/27 06:40:13;;;;;;;10.95;6.55;;;;;;;15.20;89.75;101858.84;5093163;28;20032;-60
2023/09/27 06:42:39;;;;;;;13.23;7.40;;;;;;;15.24;89.93;101845.56;5093064;28;20131;-61
2023/09/27 06:45:06;;;;;;;11.02;7.50;;;;;;;15.39;90.23;101854.56;5092866;28;20048;-60
2023/09/27 06:47:35;;;;;;;13.82;7.50;;;;;;;15.56;89.76;101852.03;5092839;28;20052;-60
2023/09/27 06:50:02;;;;;;;13.85;7.90;;;;;;;15.74;89.87;101862.81;5093138;28;20089;-61
2023/09/27 06:52:29;;;;;;;11.65;7.68;;;;;;;15.97;89.28;101861.19;5092770;28;20481;-60
2023/09/27 06:54:54;;;;;;;12.90;7.90;;;;;;;16.14;88.58;101873.66;5091389;28;20058;-60
2023/09/27 06:57:20;;;;;;;12.98;7.63;;;;;;;16.17;88.40;101871.03;5092701;28;20367;-60
2023/09/27 06:59:45;;;;;;;12.93;8.07;;;;;;;16.07;88.10;101869.22;5092651;28;20024;-60
2023/09/27 07:02:11;;;;;;;10.65;7.65;;;;;;;16.06;88.63;101876.34;5092549;28;20111;-60
2023/09/27 07:04:38;;;;;;;14.68;7.60;;;;;;;16.06;88.53;101875.41;5093042;28;20031;-60
2023/09/27 07:07:04;;;;;;;10.98;7.95;;;;;;;16.10;88.85;101877.22;5092861;28;20082;-60
2023/09/27 07:09:33;;;;;;;12.57;8.63;;;;;;;16.16;89.48;101874.59;5092863;28;20409;-61
2023/09/27 07:11:58;;;;;;;12.38;7.85;;;;;;;16.33;88.64;101870.22;5092588;28;20081;-61
2023/09/27 07:14:23;;;;;;;16.50;8.18;;;;;;;16.20;88.31;101871.94;5092882;28;20028;-61
2023/09/27 07:16:49;;;;;;;13.15;8.40;;;;;;;16.19;89.27;101878.16;5092698;28;20125;-61
2023/09/27 07:19:15;;;;;;;17.90;15.48;;;;;;;16.17;90.06;101876.34;5091379;28;20024;-60
2023/09/27 07:21:41;;;;;;;14.10;8.65;;;;;;;16.16;90.00;101880.81;5092832;28;20036;-60
2023/09/27 07:24:09;;;;;;;11.00;8.25;;;;;;;16.15;89.81;101879.03;5092555;28;20035;-60
2023/09/27 07:26:35;;;;;;;15.02;8.20;;;;;;;16.17;89.69;101884.38;5092605;28;20028;-61
2023/09/27 07:29:00;;;;;;;14.90;8.05;;;;;;;16.15;90.07;101886.16;5095436;28;20043;-60
2023/09/27 07:31:26;;;;;;;11.60;8.18;;;;;;;16.18;89.80;101894.13;5096734;28;20048;-61
2023/09/27 07:33:55;;;;;;;11.52;8.45;;;;;;;16.15;90.10;101887.03;5096779;28;20107;-61
2023/09/27 07:36:24;;;;;;;12.57;8.43;;;;;;;16.12;90.51;101875.47;5096663;28;20093;-61
2023/09/27 07:38:55;;;;;;;14.45;9.00;;;;;;;16.13;90.36;101875.44;5096461;28;20024;-61
2023/09/27 07:41:21;;;;;;;13.52;9.68;;;;;;;16.12;90.94;101875.47;5096748;28;20071;-61
2023/09/27 07:43:47;;;;;;;15.23;9.57;;;;;;;16.20;90.90;101887.06;5096444;28;20080;-60
2023/09/27 07:46:14;;;;;;;12.35;9.70;;;;;;;16.23;90.65;101877.28;5095099;28;20043;-61
2023/09/27 07:48:41;;;;;;;15.02;9.70;;;;;;;16.42;90.84;101872.00;5096429;28;20082;-61
2023/09/27 07:51:11;;;;;;;16.25;9.38;;;;;;;16.65;90.19;101872.06;5096320;28;20081;-60
2023/09/27 07:53:37;;;;;;;13.70;9.75;;;;;;;16.80;89.39;101874.81;5096501;28;20080;-60
2023/09/27 07:56:03;;;;;;;13.35;9.38;;;;;;;17.00;89.11;101874.81;5096379;28;20519;-61
2023/09/27 07:58:29;;;;;;;14.07;9.30;;;;;;;17.21;88.03;101871.25;5096123;28;20390;-61
2023/09/27 08:00:54;;;;;;;17.08;9.48;;;;;;;17.51;88.07;101881.94;5094114;28;20027;-61
2023/09/27 08:03:21;;;;;;;14.70;9.93;;;;;;;17.79;86.31;101886.38;5093962;28;20467;-61
2023/09/27 08:05:50;;;;;;;14.40;9.85;;;;;;;17.88;86.07;101884.56;5094811;28;20034;-61
2023/09/27 08:08:15;;;;;;;11.32;9.27;;;;;;;18.12;84.18;101877.38;5096114;28;20028;-61
2023/09/27 08:10:43;;;;;;;13.48;9.48;;;;;;;18.42;84.27;101877.22;5095677;28;20440;-61
2023/09/27 08:13:16;;;;;;;12.88;9.60;;;;;;;18.59;82.49;101885.16;5095488;28;20035;-61
2023/09/27 08:15:42;;;;;;;13.40;9.18;;;;;;;18.93;81.39;101896.59;5095918;28;20028;-61
2023/09/27 08:18:08;;;;;;;13.30;9.38;;;;;;;19.16;81.40;101895.50;5096006;28;20390;-61
2023/09/27 08:20:34;;;;;;;11.77;8.57;;;;;;;19.43;79.18;101892.59;5095574;28;20040;-61
2023/09/27 08:23:01;;;;;;;13.70;9.38;;;;;;;19.69;77.72;101899.53;5095931;28;20044;-60
2023/09/27 08:25:26;;;;;;;13.05;9.13;;;;;;;19.80;77.29;101897.63;5104993;28;20035;-61
2023/09/27 08:27:51;;;;;;;13.80;9.50;;;;;;;19.97;75.88;101906.38;5115966;28;20153;-61
2023/09/27 08:30:19;;;;;;;12.10;9.35;;;;;;;20.32;75.14;101922.97;5116014;28;20148;-58
2023/09/27 08:32:45;;;;;;;10.98;9.13;;;;;;;20.49;74.83;101916.50;5115341;28;20523;-59
2023/09/27 08:35:10;;;;;;;13.45;8.98;;;;;;;20.88;73.14;101915.97;5116013;28;20115;-61
2023/09/27 08:37:36;;;;;;;12.75;9.43;;;;;;;21.13;71.95;101912.00;5115076;28;20024;-61
2023/09/27 08:40:05;;;;;;;12.68;9.35;;;;;;;21.52;70.92;101908.69;5115757;28;20051;-62
2023/09/27 08:42:32;;;;;;;13.68;9.60;;;;;;;21.85;69.76;101913.47;5115523;28;20122;-59
2023/09/27 08:44:59;;;;;;;17.08;9.80;;;;;;;22.04;68.49;101915.78;5115499;28;20042;-59
2023/09/27 08:47:25;;;;;;;13.35;9.23;;;;;;;22.29;68.05;101917.09;5115647;28;20040;-60
2023/09/27 08:49:51;;;;;;;11.65;9.18;;;;;;;22.60;67.34;101916.44;5115410;28;20049;-59
2023/09/27 08:52:17;;;;;;;13.35;8.40;;;;;;;22.81;64.93;101912.38;5115588;28;20012;-59
2023/09/27 08:54:43;;;;;;;10.80;8.77;;;;;;;22.78;65.87;101905.22;5115370;28;20027;-59
2023/09/27 08:57:10;;;;;;;19.85;8.77;;;;;;;22.77;65.70;101897.19;5115573;28;20516;-60
2023/09/27 08:59:36;;;;;;;9.82;8.15;;;;;;;22.80;65.07;101898.00;5114880;28;20116;-59
2023/09/27 09:02:04;;;;;;;13.48;8.65;;;;;;;22.92;64.72;101899.56;5115421;28;20111;-62
2023/09/27 09:04:32;;;;;;;16.27;8.57;;;;;;;23.07;64.44;101893.78;5115191;28;20042;-62
2023/09/27 09:06:58;;;;;;;16.05;9.20;;;;;;;23.45;64.28;101889.25;5107042;28;20493;-62
2023/09/27 09:09:26;;;;;;;15.38;9.13;;;;;;;23.88;61.56;101891.69;5094390;28;20020;-62
2023/09/27 09:11:57;;;;;;;12.57;9.20;;;;;;;23.94;62.26;101899.66;5097265;28;20036;-62
2023/09/27 09:14:43;;;;;;;14.48;9.00;;;;;;;24.09;62.85;101889.31;5104761;28;20026;-62
2023/09/27 09:17:17;;;;;;;17.73;9.30;;;;;;;23.89;61.95;101884.47;5105281;28;20020;-62
2023/09/27 09:19:43;;;;;;;18.80;9.10;;;;;;;23.84;64.48;101876.50;5114852;28;20027;-61
2023/09/27 09:22:11;;;;;;;14.43;8.80;;;;;;;23.76;62.85;101878.53;5114903;28;20081;-62
2023/09/27 09:24:40;;;;;;;17.42;9.13;;;;;;;23.57;63.92;101880.84;5114956;28;20102;-62
2023/09/27 09:27:16;;;;;;;14.57;9.45;;;;;;;23.43;64.00;101881.22;5115362;28;20038;-62
2023/09/27 09:29:50;;;;;;;11.50;9.25;;;;;;;23.16;65.33;101876.50;5115213;28;20020;-62
2023/09/27 09:32:20;;;;;;;16.30;9.90;;;;;;;22.90;67.25;101874.44;5114158;27;20044;-62
2023/09/27 09:34:48;;;;;;;14.35;9.93;;;;;;;22.71;66.67;101873.97;5114997;28;20159;-61
2023/09/27 09:37:19;;;;;;;16.83;9.45;;;;;;;22.72;67.55;101871.25;5114439;28;20044;-62
2023/09/27 09:39:46;;;;;;;14.07;9.73;;;;;;;22.73;67.60;101864.91;5114404;28;20033;-62
2023/09/27 09:42:12;;;;;;;13.63;8.48;;;;;;;22.68;66.78;101871.34;5114317;28;20046;-61
2023/09/27 09:44:38;;;;;;;13.25;9.25;;;;;;;22.63;66.44;101866.06;5114644;28;20032;-61
2023/09/27 09:47:11;;;;;;;16.33;8.90;;;;;;;22.59;65.78;101860.78;5114313;28;20020;-62
2023/09/27 09:49:37;;;;;;;13.93;9.25;;;;;;;22.49;64.37;101854.72;5113772;28;20027;-61
2023/09/27 09:52:06;;;;;;;15.63;9.43;;;;;;;22.64;64.84;101857.06;5114262;28;20376;-62
2023/09/27 09:54:46;;;;;;;15.80;10.02;;;;;;;22.80;66.15;101845.94;5114300;28;20028;-61
2023/09/27 09:57:13;;;;;;;15.98;10.55;;;;;;;22.89;64.61;101846.59;5114516;28;20032;-61
2023/09/27 10:00:17;;;;;;;15.18;10.27;;;;;;;23.07;65.42;101829.09;5114436;28;20016;-61
2023/09/27 10:02:51;;;;;;;16.17;10.35;;;;;;;23.54;64.33;101829.63;5113979;28;20035;-61
2023/09/27 10:05:21;;;;;;;14.35;11.00;;;;;;;23.78;62.07;101830.81;5114292;28;20384;-62
2023/09/27 10:07:47;;;;;;;22.70;10.75;;;;;;;24.11;61.46;101831.66;5113997;28;20035;-61
2023/09/27 10:10:16;;;;;;;15.20;10.15;;;;;;;24.29;61.26;101822.09;5114225;28;20031;-61
2023/09/27 10:12:46;;;;;;;14.00;9.88;;;;;;;24.39;59.78;101820.91;5113898;27;20027;-61
2023/09/27 10:15:16;;;;;;;14.68;9.43;;;;;;;24.32;59.08;101811.19;5114025;27;20043;-61
2023/09/27 10:17:41;;;;;;;12.68;8.95;;;;;;;24.05;59.20;101815.63;5113900;28;20397;-61
2023/09/27 10:20:12;;;;;;;12.80;8.65;;;;;;;23.90;59.25;101822.38;5112358;28;20027;-61
2023/09/27 10:22:42;;;;;;;15.50;8.70;;;;;;;23.97;60.20;101820.34;5114229;28;20100;-62
2023/09/27 10:25:22;;;;;;;13.68;9.00;;;;;;;24.07;59.50;101832.66;5113873;28;20023;-61
2023/09/27 10:28:11;;;;;;;13.77;9.00;;;;;;;24.27;59.70;101832.06;5114124;28;20338;-62
2023/09/27 10:30:40;;;;;;;13.82;8.32;;;;;;;24.30;57.75;101831.09;5113751;28;20031;-60
2023/09/27 10:33:14;;;;;;;15.70;8.57;;;;;;;24.78;57.88;101825.97;5113495;28;20074;-61
2023/09/27 10:35:41;;;;;;;12.75;8.70;;;;;;;24.91;56.77;101821.03;5113490;28;20051;-61
2023/09/27 10:38:09;;;;;;;11.38;8.95;;;;;;;24.96;55.75;101809.13;5113632;28;20433;-62
2023/09/27 10:40:42;;;;;;;12.75;8.73;;;;;;;24.86;56.65;101802.25;5113198;28;20469;-60
2023/09/27 10:43:07;;;;;;;13.88;8.75;;;;;;;24.87;56.84;101786.94;5113476;28;20107;-61
2023/09/27 10:45:33;;;;;;;13.00;8.30;;;;;;;24.97;57.65;101783.00;5113445;28;20106;-60
2023/09/27 10:48:18;;;;;;;13.35;8.05;;;;;;;24.97;56.74;101786.56;5113469;28;20032;-62
2023/09/27 10:50:55;;;;;;;15.45;7.50;;;;;;;24.97;55.94;101789.28;5113406;28;20023;-62
2023/09/27 10:53:21;;;;;;;9.73;7.47;;;;;;;24.99;54.32;101787.38;5113386;28;20112;-62
2023/09/27 10:55:46;;;;;;;10.35;7.40;;;;;;;25.20;54.70;101774.09;5113204;28;20069;-61
2023/09/27 10:58:21;;;;;;;10.48;7.57;;;;;;;25.09;55.05;101769.03;5113254;28;20027;-62
2023/09/27 11:00:50;;;;;;;13.48;7.13;;;;;;;24.95;54.08;101766.78;5113059;28;20031;-62
2023/09/27 11:03:19;;;;;;;9.77;7.25;;;;;;;24.96;55.74;101765.84;5113033;28;20020;-62
2023/09/27 11:05:44;;;;;;;11.00;7.32;;;;;;;24.78;54.34;101754.78;5113257;28;20035;-61
2023/09/27 11:08:10;;;;;;;11.80;7.65;;;;;;;24.81;55.12;101752.00;5113043;28;20152;-61
2023/09/27 11:10:36;;;;;;;14.02;7.55;;;;;;;24.90;55.62;101748.97;5113232;28;20392;-61
2023/09/27 11:13:11;;;;;;;10.60;7.00;;;;;;;24.98;55.66;101750.47;5113304;28;20114;-61
2023/09/27 11:15:41;;;;;;;13.27;6.63;;;;;;;25.16;54.70;101740.84;5113482;28;20487;-62
2023/09/27 11:18:07;;;;;;;11.88;7.45;;;;;;;25.04;53.57;101741.25;5113134;28;20030;-62